createdAt,value
2022-10-14T00:00:04.623Z,12.81
2022-10-14T00:00:54.658Z,12.81
2022-10-14T00:01:44.642Z,12.80
2022-10-14T00:02:34.595Z,12.79
2022-10-14T00:03:24.581Z,12.77
2022-10-14T00:04:14.569Z,12.76
2022-10-14T00:05:04.566Z,12.74
2022-10-14T00:05:54.557Z,12.74
2022-10-14T00:06:44.762Z,12.74
2022-10-14T00:07:34.552Z,12.71
2022-10-14T00:08:24.529Z,12.73
2022-10-14T00:09:14.509Z,12.71
2022-10-14T00:10:04.509Z,12.70
2022-10-14T00:10:54.498Z,12.70
2022-10-14T00:11:44.503Z,12.70
2022-10-14T00:12:34.680Z,12.69
2022-10-14T00:13:24.468Z,12.70
2022-10-14T00:14:14.465Z,12.69
2022-10-14T00:15:04.448Z,12.69
2022-10-14T00:15:54.440Z,12.69
2022-10-14T00:16:44.429Z,12.69
2022-10-14T00:17:34.455Z,12.69
2022-10-14T00:18:24.658Z,12.67
2022-10-14T00:19:14.412Z,12.67
2022-10-14T00:20:04.389Z,12.67
2022-10-14T00:20:54.410Z,12.69
2022-10-14T00:21:44.380Z,12.67
2022-10-14T00:22:34.364Z,12.66
2022-10-14T00:23:24.357Z,12.66
2022-10-14T00:24:14.557Z,12.69
2022-10-14T00:25:04.358Z,12.66
2022-10-14T00:25:54.327Z,12.67
2022-10-14T00:26:44.320Z,12.66
2022-10-14T00:27:34.306Z,12.66
2022-10-14T00:28:24.337Z,12.63
2022-10-14T00:29:14.289Z,12.63
2022-10-14T00:30:04.334Z,12.62
2022-10-14T00:30:54.276Z,12.62
2022-10-14T00:31:44.266Z,12.62
2022-10-14T00:32:34.247Z,12.61
2022-10-14T00:33:24.259Z,12.61
2022-10-14T00:34:14.237Z,12.61
2022-10-14T00:35:04.234Z,12.59
2022-10-14T00:35:54.262Z,12.59
2022-10-14T00:36:44.207Z,12.55
2022-10-14T00:37:34.197Z,12.55
2022-10-14T00:38:24.188Z,12.54
2022-10-14T00:39:14.185Z,12.51
2022-10-14T00:40:04.184Z,12.48
2022-10-14T00:40:54.166Z,12.44
2022-10-14T00:41:44.177Z,12.41
2022-10-14T00:42:34.145Z,12.40
2022-10-14T00:43:24.139Z,12.40
2022-10-14T00:44:14.125Z,12.36
2022-10-14T00:45:04.116Z,12.36
2022-10-14T00:45:54.103Z,12.34
2022-10-14T00:46:44.097Z,12.34
2022-10-14T00:47:34.120Z,12.36
2022-10-14T00:48:24.076Z,12.34
2022-10-14T00:49:14.067Z,12.33
2022-10-14T00:50:04.062Z,12.34
2022-10-14T00:50:54.045Z,12.34
2022-10-14T00:51:44.046Z,12.36
2022-10-14T00:52:34.029Z,12.34
2022-10-14T00:53:24.048Z,12.34
2022-10-14T00:54:14.013Z,12.36
2022-10-14T00:55:04.016Z,12.36
2022-10-14T00:55:53.996Z,12.34
2022-10-14T00:56:43.984Z,12.34
2022-10-14T00:57:33.965Z,12.31
2022-10-14T00:58:23.965Z,12.30
2022-10-14T00:59:13.975Z,12.29
2022-10-14T01:00:03.958Z,12.26
2022-10-14T01:00:53.979Z,12.25
2022-10-14T01:01:43.935Z,12.23
2022-10-14T01:02:33.923Z,12.22
2022-10-14T01:03:23.923Z,12.23
2022-10-14T01:04:13.895Z,12.22
2022-10-14T01:05:04.096Z,12.22
2022-10-14T01:05:53.875Z,12.22
2022-10-14T01:06:43.875Z,12.19
2022-10-14T01:07:33.863Z,12.16
2022-10-14T01:08:23.863Z,12.16
2022-10-14T01:09:13.843Z,12.13
2022-10-14T01:10:03.845Z,12.11
2022-10-14T01:10:54.034Z,12.08
2022-10-14T01:11:43.838Z,12.07
2022-10-14T01:12:33.821Z,12.05
2022-10-14T01:13:23.809Z,12.04
2022-10-14T01:14:13.785Z,12.03
2022-10-14T01:15:03.783Z,12.03
2022-10-14T01:15:53.764Z,12.01
2022-10-14T01:16:43.803Z,12.01
2022-10-14T01:17:33.754Z,12.03
2022-10-14T01:18:23.744Z,12.03
2022-10-14T01:19:13.734Z,12.03
2022-10-14T01:20:03.723Z,12.01
2022-10-14T01:20:53.710Z,12.00
2022-10-14T01:21:43.703Z,12.01
2022-10-14T01:22:33.763Z,11.98
2022-10-14T01:23:23.694Z,11.94
2022-10-14T01:24:13.676Z,11.94
2022-10-14T01:25:03.663Z,11.90
2022-10-14T01:25:53.661Z,11.88
2022-10-14T01:26:43.644Z,11.88
2022-10-14T01:27:33.651Z,11.87
2022-10-14T01:28:23.728Z,11.84
2022-10-14T01:29:13.629Z,11.81
2022-10-14T01:30:03.612Z,11.77
2022-10-14T01:30:53.607Z,11.75
2022-10-14T01:31:43.592Z,11.74
2022-10-14T01:32:33.588Z,11.74
2022-10-14T01:33:23.572Z,11.74
2022-10-14T01:34:13.785Z,11.74
2022-10-14T01:35:03.560Z,11.74
2022-10-14T01:35:53.551Z,11.72
2022-10-14T01:36:43.531Z,11.72
2022-10-14T01:37:33.532Z,11.69
2022-10-14T01:38:23.519Z,11.69
2022-10-14T01:39:13.516Z,11.69
2022-10-14T01:40:03.539Z,11.66
2022-10-14T01:40:53.512Z,11.62
2022-10-14T01:41:43.473Z,11.60
2022-10-14T01:42:33.475Z,11.56
2022-10-14T01:43:23.493Z,11.54
2022-10-14T01:44:13.452Z,11.53
2022-10-14T01:45:03.452Z,11.51
2022-10-14T01:45:53.461Z,11.51
2022-10-14T01:46:43.420Z,11.48
2022-10-14T01:47:33.415Z,11.48
2022-10-14T01:48:23.400Z,11.45
2022-10-14T01:49:13.393Z,11.44
2022-10-14T01:50:03.384Z,11.39
2022-10-14T01:50:53.370Z,11.41
2022-10-14T01:51:43.389Z,11.38
2022-10-14T01:52:33.350Z,11.33
2022-10-14T01:53:23.347Z,11.31
2022-10-14T01:54:13.342Z,11.30
2022-10-14T01:55:03.331Z,11.28
2022-10-14T01:55:53.338Z,11.30
2022-10-14T01:56:43.307Z,11.28
2022-10-14T01:57:33.330Z,11.28
2022-10-14T01:58:23.291Z,11.28
2022-10-14T01:59:13.280Z,11.28
2022-10-14T02:00:03.268Z,11.31
2022-10-14T02:00:53.262Z,11.30
2022-10-14T02:01:43.303Z,11.30
2022-10-14T02:02:33.248Z,11.30
2022-10-14T02:03:23.279Z,11.30
2022-10-14T02:04:13.229Z,11.30
2022-10-14T02:05:03.221Z,11.28
2022-10-14T02:05:53.208Z,11.28
2022-10-14T02:06:43.199Z,11.27
2022-10-14T02:07:33.191Z,11.27
2022-10-14T02:08:23.189Z,11.26
2022-10-14T02:09:13.222Z,11.24
2022-10-14T02:10:03.157Z,11.26
2022-10-14T02:10:53.890Z,11.23
2022-10-14T02:11:43.138Z,11.21
2022-10-14T02:12:33.137Z,11.21
2022-10-14T02:13:23.158Z,11.20
2022-10-14T02:14:13.111Z,11.20
2022-10-14T02:15:03.121Z,11.19
2022-10-14T02:15:53.097Z,11.19
2022-10-14T02:16:43.098Z,11.16
2022-10-14T02:17:33.076Z,11.16
2022-10-14T02:18:23.108Z,11.16
2022-10-14T02:19:13.057Z,11.17
2022-10-14T02:20:03.045Z,11.17
2022-10-14T02:20:53.063Z,11.19
2022-10-14T02:21:43.027Z,11.21
2022-10-14T02:22:33.028Z,11.21
2022-10-14T02:23:23.227Z,11.21
2022-10-14T02:24:13.013Z,11.20
2022-10-14T02:25:03.002Z,11.20
2022-10-14T02:25:52.989Z,11.19
2022-10-14T02:26:42.966Z,11.19
2022-10-14T02:27:32.960Z,11.16
2022-10-14T02:28:22.970Z,11.16
2022-10-14T02:29:12.967Z,11.13
2022-10-14T02:30:02.936Z,11.13
2022-10-14T02:30:52.926Z,11.13
2022-10-14T02:31:42.917Z,11.13
2022-10-14T02:32:33.119Z,11.13
2022-10-14T02:33:22.895Z,11.16
2022-10-14T02:34:12.886Z,11.16
2022-10-14T02:35:02.880Z,11.13
2022-10-14T02:35:52.875Z,11.11
2022-10-14T02:36:42.858Z,11.12
2022-10-14T02:37:32.861Z,11.11
2022-10-14T02:38:23.046Z,11.11
2022-10-14T02:39:12.839Z,11.12
2022-10-14T02:40:02.829Z,11.13
2022-10-14T02:40:52.815Z,11.12
2022-10-14T02:41:42.794Z,11.11
2022-10-14T02:42:32.796Z,11.13
2022-10-14T02:43:22.806Z,11.13
2022-10-14T02:44:12.794Z,11.16
2022-10-14T02:45:02.769Z,11.13
2022-10-14T02:45:52.964Z,11.13
2022-10-14T02:46:42.744Z,11.13
2022-10-14T02:47:32.744Z,11.13
2022-10-14T02:48:22.725Z,11.12
2022-10-14T02:49:12.744Z,11.16
2022-10-14T02:50:02.711Z,11.13
2022-10-14T02:50:52.711Z,11.16
2022-10-14T02:51:42.721Z,11.13
2022-10-14T02:52:32.684Z,11.16
2022-10-14T02:53:22.675Z,11.13
2022-10-14T02:54:12.677Z,11.16
2022-10-14T02:55:02.662Z,11.16
2022-10-14T02:55:52.664Z,11.16
2022-10-14T02:56:42.634Z,11.13
2022-10-14T02:57:32.710Z,11.13
2022-10-14T02:58:22.613Z,11.13
2022-10-14T02:59:12.615Z,11.12
2022-10-14T03:00:02.595Z,11.11
2022-10-14T03:00:52.594Z,11.09
2022-10-14T03:01:42.627Z,11.09
2022-10-14T03:02:32.573Z,11.09
2022-10-14T03:03:22.582Z,11.09
2022-10-14T03:04:12.564Z,11.08
2022-10-14T03:05:02.569Z,11.09
2022-10-14T03:05:52.533Z,11.11
2022-10-14T03:06:42.524Z,11.12
2022-10-14T03:07:32.518Z,11.12
2022-10-14T03:08:22.504Z,11.11
2022-10-14T03:09:12.552Z,11.09
2022-10-14T03:10:02.493Z,11.09
2022-10-14T03:10:52.504Z,11.09
2022-10-14T03:11:42.463Z,11.09
2022-10-14T03:12:32.467Z,11.13
2022-10-14T03:13:22.458Z,11.13
2022-10-14T03:14:12.443Z,11.16
2022-10-14T03:15:02.462Z,11.17
2022-10-14T03:15:52.421Z,11.17
2022-10-14T03:16:42.408Z,11.20
2022-10-14T03:17:32.410Z,11.20
2022-10-14T03:18:22.392Z,11.20
2022-10-14T03:19:12.382Z,11.20
2022-10-14T03:20:02.375Z,11.20
2022-10-14T03:20:52.427Z,11.19
2022-10-14T03:21:42.351Z,11.20
2022-10-14T03:22:32.347Z,11.20
2022-10-14T03:23:22.345Z,11.21
2022-10-14T03:24:12.335Z,11.20
2022-10-14T03:25:02.325Z,11.19
2022-10-14T03:25:52.320Z,11.17
2022-10-14T03:26:42.513Z,11.16
2022-10-14T03:27:32.300Z,11.13
2022-10-14T03:28:22.339Z,11.13
2022-10-14T03:29:12.292Z,11.13
2022-10-14T03:30:02.261Z,11.12
2022-10-14T03:30:52.283Z,11.11
2022-10-14T03:31:42.247Z,11.08
2022-10-14T03:32:32.230Z,11.09
2022-10-14T03:33:25.594Z,11.08
2022-10-14T03:34:12.217Z,11.08
2022-10-14T03:35:02.238Z,11.06
2022-10-14T03:35:52.202Z,11.08
2022-10-14T03:36:42.189Z,11.08
2022-10-14T03:37:32.179Z,11.06
2022-10-14T03:38:22.184Z,11.08
2022-10-14T03:39:12.158Z,11.06
2022-10-14T03:40:02.166Z,11.08
2022-10-14T03:40:52.203Z,11.06
2022-10-14T03:41:42.130Z,11.05
2022-10-14T03:42:32.128Z,11.05
2022-10-14T03:43:22.110Z,11.03
2022-10-14T03:44:12.109Z,11.03
2022-10-14T03:45:02.088Z,11.03
2022-10-14T03:45:52.092Z,11.03
2022-10-14T03:46:42.099Z,11.02
2022-10-14T03:47:32.111Z,10.99
2022-10-14T03:48:22.058Z,11.01
2022-10-14T03:49:12.048Z,10.99
2022-10-14T03:50:02.037Z,11.01
2022-10-14T03:50:52.052Z,10.99
2022-10-14T03:51:42.032Z,10.99
2022-10-14T03:52:32.234Z,10.99
2022-10-14T03:53:22.008Z,10.99
2022-10-14T03:54:11.995Z,11.01
2022-10-14T03:55:01.995Z,11.01
2022-10-14T03:55:51.972Z,11.03
2022-10-14T03:56:41.957Z,11.05
2022-10-14T03:57:31.964Z,11.05
2022-10-14T03:58:21.966Z,11.06
2022-10-14T03:59:11.938Z,11.06
2022-10-14T04:00:01.926Z,11.05
2022-10-14T04:00:51.922Z,11.06
2022-10-14T04:01:41.951Z,11.09
2022-10-14T04:02:31.905Z,11.09
2022-10-14T04:03:21.887Z,11.09
2022-10-14T04:04:11.896Z,11.11
2022-10-14T04:05:01.877Z,11.12
2022-10-14T04:05:51.870Z,11.12
2022-10-14T04:06:41.846Z,11.12
2022-10-14T04:07:31.847Z,11.16
2022-10-14T04:08:21.836Z,11.16
2022-10-14T04:09:11.823Z,11.17
2022-10-14T04:10:01.865Z,11.16
2022-10-14T04:10:51.811Z,11.19
2022-10-14T04:11:41.793Z,11.20
2022-10-14T04:12:31.814Z,11.20
2022-10-14T04:13:21.786Z,11.20
2022-10-14T04:14:11.766Z,11.23
2022-10-14T04:15:01.760Z,11.23
2022-10-14T04:15:51.807Z,11.24
2022-10-14T04:16:43.936Z,11.24
2022-10-14T04:17:31.746Z,11.26
2022-10-14T04:18:21.717Z,11.26
2022-10-14T04:19:11.723Z,11.27
2022-10-14T04:20:01.709Z,11.28
2022-10-14T04:20:51.694Z,11.27
2022-10-14T04:21:41.708Z,11.27
2022-10-14T04:22:31.675Z,11.27
2022-10-14T04:23:21.664Z,11.28
2022-10-14T04:24:11.654Z,11.31
2022-10-14T04:25:01.676Z,11.31
2022-10-14T04:25:51.634Z,11.30
2022-10-14T04:26:41.625Z,11.31
2022-10-14T04:27:31.815Z,11.31
2022-10-14T04:28:21.673Z,11.31
2022-10-14T04:29:11.611Z,11.33
2022-10-14T04:30:01.584Z,11.33
2022-10-14T04:30:51.580Z,11.31
2022-10-14T04:31:41.563Z,11.35
2022-10-14T04:32:31.618Z,11.33
2022-10-14T04:33:21.558Z,11.33
2022-10-14T04:34:11.546Z,11.35
2022-10-14T04:35:01.528Z,11.38
2022-10-14T04:35:51.527Z,11.38
2022-10-14T04:36:41.513Z,11.38
2022-10-14T04:37:31.504Z,11.38
2022-10-14T04:38:21.714Z,11.39
2022-10-14T04:39:11.483Z,11.38
2022-10-14T04:40:01.478Z,11.39
2022-10-14T04:40:51.493Z,11.39
2022-10-14T04:41:41.459Z,11.39
2022-10-14T04:42:31.455Z,11.39
2022-10-14T04:43:21.434Z,11.38
2022-10-14T04:44:11.482Z,11.35
2022-10-14T04:45:01.424Z,11.31
2022-10-14T04:45:51.412Z,11.30
2022-10-14T04:46:41.395Z,11.27
2022-10-14T04:47:32.505Z,11.26
2022-10-14T04:48:21.383Z,11.26
2022-10-14T04:49:11.381Z,11.24
2022-10-14T04:50:01.395Z,11.23
2022-10-14T04:50:51.367Z,11.24
2022-10-14T04:51:41.342Z,11.23
2022-10-14T04:52:31.335Z,11.21
2022-10-14T04:53:22.494Z,11.21
2022-10-14T04:54:11.311Z,11.21
2022-10-14T04:55:01.301Z,11.21
2022-10-14T04:55:51.321Z,11.21
2022-10-14T04:56:41.321Z,11.20
2022-10-14T04:57:31.279Z,11.21
2022-10-14T04:58:21.261Z,11.23
2022-10-14T04:59:11.263Z,11.20
2022-10-14T05:00:01.242Z,11.20
2022-10-14T05:00:51.283Z,11.20
2022-10-14T05:01:42.998Z,11.19
2022-10-14T05:02:31.223Z,11.19
2022-10-14T05:03:21.213Z,11.17
2022-10-14T05:04:11.201Z,11.19
2022-10-14T05:05:01.191Z,11.20
2022-10-14T05:05:51.192Z,11.20
2022-10-14T05:06:41.170Z,11.19
2022-10-14T05:07:31.219Z,11.23
2022-10-14T05:08:21.151Z,11.23
2022-10-14T05:09:11.141Z,11.24
2022-10-14T05:10:01.142Z,11.27
2022-10-14T05:10:51.126Z,11.28
2022-10-14T05:11:41.119Z,11.28
2022-10-14T05:12:31.100Z,11.30
2022-10-14T05:13:21.302Z,11.30
2022-10-14T05:14:11.089Z,11.30
2022-10-14T05:15:01.079Z,11.31
2022-10-14T05:15:51.092Z,11.30
2022-10-14T05:16:41.060Z,11.30
2022-10-14T05:17:31.049Z,11.33
2022-10-14T05:18:21.049Z,11.33
2022-10-14T05:19:11.083Z,11.35
2022-10-14T05:20:01.020Z,11.36
2022-10-14T05:20:51.020Z,11.36
2022-10-14T05:21:41.008Z,11.36
2022-10-14T05:22:31.008Z,11.39
2022-10-14T05:23:20.979Z,11.38
2022-10-14T05:24:10.979Z,11.38
2022-10-14T05:25:01.008Z,11.38
2022-10-14T05:25:50.960Z,11.39
2022-10-14T05:26:40.951Z,11.39
2022-10-14T05:27:30.931Z,11.39
2022-10-14T05:28:20.964Z,11.39
2022-10-14T05:29:10.917Z,11.39
2022-10-14T05:30:00.909Z,11.41
2022-10-14T05:30:50.988Z,11.41
2022-10-14T05:31:40.887Z,11.41
2022-10-14T05:32:30.878Z,11.41
2022-10-14T05:33:20.868Z,11.41
2022-10-14T05:34:10.882Z,11.38
2022-10-14T05:35:00.847Z,11.36
2022-10-14T05:35:59.478Z,11.38
2022-10-14T05:36:41.918Z,11.35
2022-10-14T05:37:30.818Z,11.35
2022-10-14T05:38:20.829Z,11.36
2022-10-14T05:39:10.800Z,11.38
2022-10-14T05:40:00.799Z,11.36
2022-10-14T05:40:50.793Z,11.35
2022-10-14T05:41:40.778Z,11.33
2022-10-14T05:42:30.798Z,11.31
2022-10-14T05:43:20.763Z,11.31
2022-10-14T05:44:10.749Z,11.31
2022-10-14T05:45:00.737Z,11.31
2022-10-14T05:45:50.737Z,11.30
2022-10-14T05:46:40.724Z,11.28
2022-10-14T05:47:30.705Z,11.28
2022-10-14T05:48:20.909Z,11.26
2022-10-14T05:49:10.686Z,11.24
2022-10-14T05:50:00.688Z,11.26
2022-10-14T05:50:50.674Z,11.24
2022-10-14T05:51:40.666Z,11.26
2022-10-14T05:52:34.033Z,11.24
2022-10-14T05:53:20.648Z,11.27
2022-10-14T05:54:10.657Z,11.26
2022-10-14T05:55:00.637Z,11.28
2022-10-14T05:55:50.616Z,11.27
2022-10-14T05:56:40.622Z,11.26
2022-10-14T05:57:30.598Z,11.24
2022-10-14T05:58:20.588Z,11.26
2022-10-14T05:59:10.574Z,11.26
2022-10-14T06:00:00.783Z,11.27
2022-10-14T06:00:50.555Z,11.26
2022-10-14T06:01:40.557Z,11.26
2022-10-14T06:02:30.566Z,11.27
2022-10-14T06:03:20.644Z,11.26
2022-10-14T06:04:10.515Z,11.26
2022-10-14T06:05:00.514Z,11.28
2022-10-14T06:05:50.543Z,11.28
2022-10-14T06:06:40.498Z,11.31
2022-10-14T06:07:30.490Z,11.31
2022-10-14T06:08:20.482Z,11.31
2022-10-14T06:09:11.511Z,11.30
2022-10-14T06:10:00.469Z,11.30
2022-10-14T06:10:50.443Z,11.30
2022-10-14T06:11:40.465Z,11.30
2022-10-14T06:12:30.431Z,11.30
2022-10-14T06:13:20.454Z,11.30
2022-10-14T06:14:10.416Z,11.31
2022-10-14T06:15:00.404Z,11.33
2022-10-14T06:15:50.386Z,11.33
2022-10-14T06:16:40.384Z,11.36
2022-10-14T06:17:30.574Z,11.35
2022-10-14T06:18:20.364Z,11.36
2022-10-14T06:19:10.359Z,11.39
2022-10-14T06:20:00.347Z,11.41
2022-10-14T06:20:50.334Z,11.42
2022-10-14T06:21:40.354Z,11.41
2022-10-14T06:22:30.327Z,11.39
2022-10-14T06:23:20.333Z,11.39
2022-10-14T06:24:10.302Z,11.41
2022-10-14T06:25:03.978Z,11.41
2022-10-14T06:25:50.275Z,11.38
2022-10-14T06:26:40.272Z,11.38
2022-10-14T06:27:30.275Z,11.36
2022-10-14T06:28:20.333Z,11.36
2022-10-14T06:29:10.476Z,11.35
2022-10-14T06:30:00.232Z,11.35
2022-10-14T06:30:50.223Z,11.35
2022-10-14T06:31:40.211Z,11.35
2022-10-14T06:32:30.204Z,11.33
2022-10-14T06:33:20.192Z,11.33
2022-10-14T06:34:10.192Z,11.33
2022-10-14T06:35:00.228Z,11.33
2022-10-14T06:35:50.163Z,11.35
2022-10-14T06:36:40.170Z,11.36
2022-10-14T06:37:30.150Z,11.38
2022-10-14T06:38:20.154Z,11.36
2022-10-14T06:39:10.120Z,11.38
2022-10-14T06:40:00.120Z,11.41
2022-10-14T06:40:50.322Z,11.42
2022-10-14T06:41:40.111Z,11.39
2022-10-14T06:42:30.090Z,11.39
2022-10-14T06:43:20.080Z,11.39
2022-10-14T06:44:10.082Z,11.39
2022-10-14T06:45:00.067Z,11.41
2022-10-14T06:45:50.064Z,11.39
2022-10-14T06:46:40.074Z,11.41
2022-10-14T06:47:30.037Z,11.44
2022-10-14T06:48:20.032Z,11.44
2022-10-14T06:49:10.011Z,11.44
2022-10-14T06:50:00.012Z,11.46
2022-10-14T06:50:50.020Z,11.45
2022-10-14T06:51:39.991Z,11.46
2022-10-14T06:52:30.195Z,11.48
2022-10-14T06:53:19.969Z,11.49
2022-10-14T06:54:09.962Z,11.51
2022-10-14T06:54:59.954Z,11.51
2022-10-14T06:55:49.940Z,11.53
2022-10-14T06:56:39.942Z,11.56
2022-10-14T06:57:29.932Z,11.56
2022-10-14T06:58:19.959Z,11.54
2022-10-14T06:59:09.902Z,11.57
2022-10-14T06:59:59.896Z,11.57
2022-10-14T07:00:49.942Z,11.59
2022-10-14T07:01:39.922Z,11.62
2022-10-14T07:02:29.858Z,11.63
2022-10-14T07:03:19.860Z,11.66
2022-10-14T07:04:10.069Z,11.66
2022-10-14T07:04:59.840Z,11.66
2022-10-14T07:05:49.828Z,11.69
2022-10-14T07:06:39.849Z,11.70
2022-10-14T07:07:29.818Z,11.70
2022-10-14T07:08:19.810Z,11.70
2022-10-14T07:09:09.799Z,11.72
2022-10-14T07:09:59.889Z,11.74
2022-10-14T07:10:49.778Z,11.75
2022-10-14T07:11:39.771Z,11.75
2022-10-14T07:12:29.762Z,11.75
2022-10-14T07:13:19.769Z,11.75
2022-10-14T07:14:09.737Z,11.78
2022-10-14T07:14:59.739Z,11.78
2022-10-14T07:15:49.784Z,11.75
2022-10-14T07:16:39.718Z,11.77
2022-10-14T07:17:29.702Z,11.78
2022-10-14T07:18:19.698Z,11.81
2022-10-14T07:19:09.687Z,11.82
2022-10-14T07:19:59.677Z,11.87
2022-10-14T07:20:49.700Z,11.87
2022-10-14T07:21:39.686Z,11.90
2022-10-14T07:22:29.638Z,11.93
2022-10-14T07:23:19.636Z,11.93
2022-10-14T07:24:09.684Z,11.93
2022-10-14T07:24:59.626Z,11.96
2022-10-14T07:25:49.619Z,11.96
2022-10-14T07:26:39.597Z,11.96
2022-10-14T07:27:29.617Z,11.98
2022-10-14T07:28:19.642Z,11.98
2022-10-14T07:29:09.566Z,12.01
2022-10-14T07:29:59.579Z,12.03
2022-10-14T07:30:49.555Z,12.03
2022-10-14T07:31:39.547Z,12.05
2022-10-14T07:32:29.537Z,12.08
2022-10-14T07:33:19.545Z,12.12
2022-10-14T07:34:09.516Z,12.13
2022-10-14T07:34:59.527Z,12.13
2022-10-14T07:35:49.496Z,12.16
2022-10-14T07:36:39.486Z,12.15
2022-10-14T07:37:29.475Z,12.16
2022-10-14T07:38:19.464Z,12.19
2022-10-14T07:39:09.693Z,12.19
2022-10-14T07:39:59.553Z,12.21
2022-10-14T07:40:49.436Z,12.21
2022-10-14T07:41:39.434Z,12.22
2022-10-14T07:42:29.422Z,12.22
2022-10-14T07:43:19.449Z,12.23
2022-10-14T07:44:09.405Z,12.25
2022-10-14T07:44:59.426Z,12.25
2022-10-14T07:45:49.382Z,12.23
2022-10-14T07:46:39.385Z,12.22
2022-10-14T07:47:29.374Z,12.23
2022-10-14T07:48:27.293Z,12.23
2022-10-14T07:49:10.345Z,12.25
2022-10-14T07:49:59.340Z,12.25
2022-10-14T07:50:49.554Z,12.25
2022-10-14T07:51:39.344Z,12.29
2022-10-14T07:52:29.308Z,12.29
2022-10-14T07:53:19.306Z,12.30
2022-10-14T07:54:09.303Z,12.29
2022-10-14T07:54:59.299Z,12.31
2022-10-14T07:55:49.284Z,12.31
2022-10-14T07:56:39.513Z,12.34
2022-10-14T07:57:29.253Z,12.37
2022-10-14T07:58:19.245Z,12.40
2022-10-14T07:59:09.230Z,12.38
2022-10-14T07:59:59.255Z,12.40
2022-10-14T08:00:49.213Z,12.43
2022-10-14T08:01:39.310Z,12.44
2022-10-14T08:02:29.292Z,12.48
2022-10-14T08:03:19.193Z,12.51
2022-10-14T08:04:09.182Z,12.52
2022-10-14T08:05:18.954Z,12.54
2022-10-14T08:05:50.166Z,12.54
2022-10-14T08:06:39.155Z,12.58
2022-10-14T08:07:29.142Z,12.61
2022-10-14T08:08:19.263Z,12.63
2022-10-14T08:09:09.123Z,12.66
2022-10-14T08:09:59.133Z,12.71
2022-10-14T08:10:49.106Z,12.73
2022-10-14T08:11:39.112Z,12.76
2022-10-14T08:12:29.082Z,12.80
2022-10-14T08:13:19.082Z,12.81
2022-10-14T08:14:09.082Z,12.81
2022-10-14T08:14:59.299Z,12.84
2022-10-14T08:15:49.053Z,12.85
2022-10-14T08:16:39.057Z,12.88
2022-10-14T08:17:29.023Z,12.88
2022-10-14T08:18:19.035Z,12.94
2022-10-14T08:19:13.737Z,12.98
2022-10-14T08:20:00.340Z,13.01
2022-10-14T08:20:48.993Z,13.06
2022-10-14T08:21:38.983Z,13.06
2022-10-14T08:22:28.975Z,13.09
2022-10-14T08:23:19.973Z,13.10
2022-10-14T08:24:08.947Z,13.12
2022-10-14T08:24:58.949Z,13.12
2022-10-14T08:25:48.958Z,13.14
2022-10-14T08:26:38.934Z,13.16
2022-10-14T08:27:28.921Z,13.17
2022-10-14T08:28:18.934Z,13.17
2022-10-14T08:29:08.892Z,13.21
2022-10-14T08:29:58.891Z,13.24
2022-10-14T08:30:48.913Z,13.25
2022-10-14T08:31:38.905Z,13.27
2022-10-14T08:32:28.851Z,13.31
2022-10-14T08:33:18.850Z,13.35
2022-10-14T08:34:09.061Z,13.31
2022-10-14T08:34:58.839Z,13.28
2022-10-14T08:35:53.110Z,13.28
2022-10-14T08:36:39.811Z,13.29
2022-10-14T08:37:28.802Z,13.29
2022-10-14T08:38:18.872Z,13.35
2022-10-14T08:39:58.808Z,13.41
2022-10-14T08:40:53.332Z,13.43
2022-10-14T08:41:39.751Z,13.47
2022-10-14T08:42:28.771Z,13.51
2022-10-14T08:43:18.732Z,13.53
2022-10-14T08:44:08.721Z,13.57
2022-10-14T08:44:58.720Z,13.61
2022-10-14T08:45:48.748Z,13.65
2022-10-14T08:46:38.695Z,13.65
2022-10-14T08:47:28.693Z,13.69
2022-10-14T08:48:18.676Z,13.72
2022-10-14T08:49:08.670Z,13.75
2022-10-14T08:49:58.671Z,13.79
2022-10-14T08:50:48.664Z,13.80
2022-10-14T08:51:38.859Z,13.81
2022-10-14T08:52:31.336Z,13.84
2022-10-14T08:53:19.652Z,13.87
2022-10-14T08:54:08.620Z,13.88
2022-10-14T08:54:58.605Z,13.93
2022-10-14T08:55:48.588Z,13.96
2022-10-14T08:56:38.581Z,13.99
2022-10-14T08:57:28.790Z,14.02
2022-10-14T08:58:18.696Z,14.04
2022-10-14T08:59:08.560Z,14.05
2022-10-14T08:59:58.547Z,14.06
2022-10-14T09:00:48.540Z,14.11
2022-10-14T09:01:38.532Z,14.11
2022-10-14T09:02:28.509Z,14.13
2022-10-14T09:03:18.721Z,14.16
2022-10-14T09:04:08.565Z,14.20
2022-10-14T09:04:58.490Z,14.20
2022-10-14T09:05:48.477Z,14.23
2022-10-14T09:06:38.468Z,14.27
2022-10-14T09:07:28.459Z,14.29
2022-10-14T09:08:18.448Z,14.29
2022-10-14T09:09:09.089Z,14.30
2022-10-14T09:09:58.438Z,14.29
2022-10-14T09:10:48.417Z,14.29
2022-10-14T09:11:38.407Z,14.23
2022-10-14T09:12:28.408Z,14.19
2022-10-14T09:13:18.402Z,14.12
2022-10-14T09:14:08.386Z,14.11
2022-10-14T09:14:58.602Z,14.11
2022-10-14T09:15:48.368Z,14.12
2022-10-14T09:16:38.348Z,14.08
2022-10-14T09:17:28.341Z,14.02
2022-10-14T09:18:18.329Z,14.01
2022-10-14T09:19:08.328Z,14.01
2022-10-14T09:19:58.315Z,14.02
2022-10-14T09:20:48.358Z,14.01
2022-10-14T09:21:52.117Z,13.98
2022-10-14T09:22:29.289Z,13.96
2022-10-14T09:23:18.272Z,13.91
2022-10-14T09:24:08.267Z,13.91
2022-10-14T09:24:58.257Z,13.91
2022-10-14T09:25:48.256Z,13.91
2022-10-14T09:26:38.295Z,13.91
2022-10-14T09:27:28.233Z,13.90
2022-10-14T09:28:18.267Z,13.87
2022-10-14T09:29:08.208Z,13.86
2022-10-14T09:29:58.208Z,13.81
2022-10-14T09:30:48.187Z,13.79
2022-10-14T09:31:38.178Z,13.80
2022-10-14T09:32:28.409Z,13.81
2022-10-14T09:33:18.156Z,13.84
2022-10-14T09:34:08.237Z,13.87
2022-10-14T09:34:58.136Z,13.87
2022-10-14T09:35:48.178Z,13.87
2022-10-14T09:36:38.157Z,13.87
2022-10-14T09:37:28.107Z,13.88
2022-10-14T09:38:18.126Z,13.87
2022-10-14T09:39:08.109Z,13.88
2022-10-14T09:39:58.097Z,13.93
2022-10-14T09:40:48.078Z,13.93
2022-10-14T09:41:38.066Z,13.96
2022-10-14T09:42:28.059Z,13.98
2022-10-14T09:43:18.048Z,13.98
2022-10-14T09:44:08.056Z,13.96
2022-10-14T09:44:58.046Z,13.93
2022-10-14T09:45:48.257Z,13.96
2022-10-14T09:46:38.010Z,13.99
2022-10-14T09:47:27.995Z,13.96
2022-10-14T09:48:17.987Z,13.96
2022-10-14T09:49:07.977Z,13.99
2022-10-14T09:49:57.980Z,14.04
2022-10-14T09:50:47.956Z,14.05
2022-10-14T09:51:38.163Z,14.09
2022-10-14T09:52:27.945Z,14.11
2022-10-14T09:53:17.925Z,14.12
2022-10-14T09:54:57.947Z,14.19
2022-10-14T09:55:47.905Z,14.21
2022-10-14T09:56:41.586Z,14.26
2022-10-14T09:57:27.986Z,14.29
2022-10-14T09:58:17.881Z,14.31
2022-10-14T09:59:07.866Z,14.34
2022-10-14T09:59:57.854Z,14.34
2022-10-14T10:00:47.855Z,14.38
2022-10-14T10:01:37.835Z,14.39
2022-10-14T10:02:27.833Z,14.42
2022-10-14T10:03:17.864Z,14.46
2022-10-14T10:04:07.828Z,14.52
2022-10-14T10:04:57.795Z,14.52
2022-10-14T10:05:47.786Z,14.56
2022-10-14T10:06:37.795Z,14.57
2022-10-14T10:07:27.772Z,14.59
2022-10-14T10:08:17.763Z,14.60
2022-10-14T10:09:07.818Z,14.63
2022-10-14T10:09:57.742Z,14.64
2022-10-14T10:10:47.733Z,14.67
2022-10-14T10:11:37.726Z,14.71
2022-10-14T10:12:27.722Z,14.72
2022-10-14T10:13:17.706Z,14.74
2022-10-14T10:14:07.701Z,14.74
2022-10-14T10:14:57.905Z,14.74
2022-10-14T10:15:47.674Z,14.74
2022-10-14T10:16:37.731Z,14.78
2022-10-14T10:17:27.663Z,14.78
2022-10-14T10:18:17.643Z,14.82
2022-10-14T10:19:07.994Z,14.85
2022-10-14T10:19:57.621Z,14.85
2022-10-14T10:20:47.826Z,14.87
2022-10-14T10:21:37.604Z,14.91
2022-10-14T10:22:27.613Z,14.95
2022-10-14T10:23:17.587Z,14.98
2022-10-14T10:24:07.655Z,14.97
2022-10-14T10:24:57.563Z,15.00
2022-10-14T10:25:47.592Z,15.03
2022-10-14T10:26:37.596Z,15.04
2022-10-14T10:27:27.539Z,15.05
2022-10-14T10:28:17.599Z,15.04
2022-10-14T10:29:07.523Z,15.04
2022-10-14T10:29:57.513Z,15.04
2022-10-14T10:30:47.505Z,15.03
2022-10-14T10:31:37.660Z,15.01
2022-10-14T10:32:27.685Z,15.00
2022-10-14T10:33:17.473Z,14.98
2022-10-14T10:34:07.462Z,14.98
2022-10-14T10:34:57.500Z,15.00
2022-10-14T10:35:47.443Z,15.00
2022-10-14T10:36:37.452Z,15.00
2022-10-14T10:37:27.423Z,15.00
2022-10-14T10:38:17.463Z,15.03
2022-10-14T10:39:07.414Z,15.03
2022-10-14T10:39:57.412Z,15.05
2022-10-14T10:40:47.433Z,15.05
2022-10-14T10:41:37.442Z,15.07
2022-10-14T10:42:27.373Z,15.07
2022-10-14T10:43:17.364Z,15.07
2022-10-14T10:44:07.393Z,15.09
2022-10-14T10:44:57.333Z,15.04